createdAt,value
2022-07-30T00:00:35.476Z,64.24
2022-07-30T00:02:37.375Z,64.37
2022-07-30T00:04:39.126Z,64.34
2022-07-30T00:06:40.860Z,64.03
2022-07-30T00:08:42.410Z,64.29
2022-07-30T00:10:44.116Z,64.25
2022-07-30T00:12:47.517Z,64.32
2022-07-30T00:14:49.111Z,64.24
2022-07-30T00:16:50.794Z,64.42
2022-07-30T00:18:52.485Z,64.02
2022-07-30T00:20:54.500Z,64.00
2022-07-30T00:22:58.346Z,64.31
2022-07-30T00:24:59.949Z,63.99
2022-07-30T00:27:02.249Z,64.43
2022-07-30T00:29:05.617Z,64.33
2022-07-30T00:31:07.315Z,64.30
2022-07-30T00:33:09.125Z,64.52
2022-07-30T00:35:10.915Z,64.27
2022-07-30T00:37:12.783Z,64.44
2022-07-30T00:39:14.365Z,64.60
2022-07-30T00:41:16.270Z,64.71
2022-07-30T00:43:18.649Z,64.49
2022-07-30T00:45:20.817Z,64.89
2022-07-30T00:47:22.536Z,64.66
2022-07-30T00:49:24.760Z,64.49
2022-07-30T00:51:26.558Z,64.66
2022-07-30T00:53:28.170Z,64.81
2022-07-30T00:55:29.912Z,64.63
2022-07-30T00:57:31.536Z,64.77
2022-07-30T00:59:33.582Z,64.74
2022-07-30T01:01:36.015Z,64.79
2022-07-30T01:03:37.754Z,65.24
2022-07-30T01:05:39.209Z,65.14
2022-07-30T01:07:40.969Z,65.02
2022-07-30T01:09:42.579Z,65.36
2022-07-30T01:11:49.899Z,65.32
2022-07-30T01:13:51.541Z,65.37
2022-07-30T01:15:53.435Z,65.30
2022-07-30T01:17:58.505Z,64.87
2022-07-30T01:20:15.242Z,65.40
2022-07-30T01:22:30.926Z,65.75
2022-07-30T01:24:40.073Z,65.81
2022-07-30T01:26:41.792Z,65.42
2022-07-30T01:28:48.895Z,65.58
2022-07-30T01:30:52.548Z,65.23
2022-07-30T01:32:56.494Z,65.49
2022-07-30T01:34:59.836Z,65.50
2022-07-30T01:37:03.716Z,65.64
2022-07-30T01:39:06.935Z,65.42
2022-07-30T01:41:09.673Z,65.08
2022-07-30T01:43:13.100Z,65.15
2022-07-30T01:45:17.368Z,65.01
2022-07-30T01:47:22.421Z,64.67
2022-07-30T01:49:25.916Z,64.79
2022-07-30T01:51:33.517Z,64.68
2022-07-30T01:53:41.791Z,64.75
2022-07-30T01:55:44.240Z,64.97
2022-07-30T01:57:48.293Z,64.87
2022-07-30T01:59:55.060Z,65.23
2022-07-30T02:01:56.668Z,65.22
2022-07-30T02:04:01.393Z,65.40
2022-07-30T02:06:09.780Z,65.24
2022-07-30T02:08:17.006Z,65.17
2022-07-30T02:10:41.283Z,65.58
2022-07-30T02:12:52.549Z,65.45
2022-07-30T02:15:14.394Z,65.96
2022-07-30T02:17:22.719Z,65.60
2022-07-30T02:19:42.721Z,66.14
2022-07-30T02:21:53.065Z,65.63
2022-07-30T02:23:56.371Z,65.85
2022-07-30T02:26:00.369Z,65.55
2022-07-30T02:28:10.075Z,65.77
2022-07-30T02:30:12.547Z,65.52
2022-07-30T02:32:19.045Z,66.14
2022-07-30T02:34:23.818Z,65.83
2022-07-30T02:36:27.761Z,65.83
2022-07-30T02:38:30.765Z,65.62
2022-07-30T02:40:32.887Z,65.63
2022-07-30T02:42:36.696Z,65.58
2022-07-30T02:44:39.290Z,65.72
2022-07-30T02:46:41.480Z,65.58
2022-07-30T02:49:04.721Z,65.40
2022-07-30T02:51:10.936Z,65.80
2022-07-30T02:53:14.448Z,65.99
2022-07-30T02:55:18.035Z,66.01
2022-07-30T02:57:21.158Z,65.69
2022-07-30T02:59:26.051Z,65.49
2022-07-30T03:01:29.280Z,65.68
2022-07-30T03:03:32.359Z,66.03
2022-07-30T03:05:34.991Z,65.77
2022-07-30T03:07:37.854Z,65.73
2022-07-30T03:09:50.872Z,65.75
2022-07-30T03:11:56.706Z,65.66
2022-07-30T03:13:58.508Z,65.73
2022-07-30T03:16:01.247Z,65.91
2022-07-30T03:18:05.087Z,66.20
2022-07-30T03:20:13.120Z,66.24
2022-07-30T03:22:20.118Z,66.12
2022-07-30T03:24:24.785Z,66.24
2022-07-30T03:26:28.158Z,66.01
2022-07-30T03:28:34.309Z,65.96
2022-07-30T03:30:36.554Z,65.90
2022-07-30T03:32:42.927Z,65.82
2022-07-30T03:34:46.247Z,66.11
2022-07-30T03:36:50.147Z,66.20
2022-07-30T03:38:53.103Z,66.18
2022-07-30T03:40:55.748Z,66.04
2022-07-30T03:42:58.693Z,66.11
2022-07-30T03:45:07.258Z,66.08
2022-07-30T03:47:09.300Z,65.71
2022-07-30T03:49:18.639Z,65.74
2022-07-30T03:51:23.463Z,65.91
2022-07-30T03:53:27.824Z,65.89
2022-07-30T03:55:48.266Z,65.63
2022-07-30T03:58:09.516Z,65.71
2022-07-30T04:00:15.406Z,65.84
2022-07-30T04:02:24.354Z,65.62
2022-07-30T04:04:30.543Z,65.43
2022-07-30T04:06:33.001Z,65.82
2022-07-30T04:08:34.872Z,65.83
2022-07-30T04:10:37.583Z,65.60
2022-07-30T04:13:02.917Z,65.54
2022-07-30T04:16:36.841Z,65.57
2022-07-30T04:17:36.823Z,66.01
2022-07-30T04:19:48.240Z,65.87
2022-07-30T04:21:55.013Z,65.57
2022-07-30T04:24:03.065Z,65.84
2022-07-30T04:26:08.553Z,65.76
2022-07-30T04:28:11.766Z,65.70
2022-07-30T04:30:14.013Z,65.42
2022-07-30T04:32:15.725Z,65.74
2022-07-30T04:34:36.765Z,65.52
2022-07-30T04:36:42.637Z,65.39
2022-07-30T04:38:44.473Z,65.25
2022-07-30T04:40:46.860Z,65.36
2022-07-30T04:42:48.799Z,65.32
2022-07-30T04:44:52.109Z,65.27
2022-07-30T04:47:08.397Z,64.82
2022-07-30T04:49:17.756Z,64.85
2022-07-30T04:51:34.179Z,65.16
2022-07-30T04:53:35.868Z,65.00
2022-07-30T04:55:42.540Z,64.80
2022-07-30T04:57:49.693Z,64.91
2022-07-30T04:59:51.739Z,64.80
2022-07-30T05:01:57.593Z,64.98
2022-07-30T05:04:01.471Z,64.75
2022-07-30T05:06:03.595Z,64.98
2022-07-30T05:08:10.038Z,65.12
2022-07-30T05:10:13.349Z,64.91
2022-07-30T05:12:16.202Z,64.71
2022-07-30T05:14:17.783Z,64.86
2022-07-30T05:16:19.626Z,64.91
2022-07-30T05:18:22.318Z,64.64
2022-07-30T05:20:24.040Z,64.38
2022-07-30T05:22:42.873Z,64.07
2022-07-30T05:24:53.792Z,64.11
2022-07-30T05:26:55.473Z,64.15
2022-07-30T05:28:58.538Z,63.87
2022-07-30T05:31:08.785Z,63.85
2022-07-30T05:33:15.857Z,63.85
2022-07-30T05:35:18.430Z,64.15
2022-07-30T05:37:20.899Z,63.69
2022-07-30T05:39:22.683Z,63.34
2022-07-30T05:41:32.955Z,63.34
2022-07-30T05:43:55.902Z,63.46
2022-07-30T05:45:59.340Z,63.35
2022-07-30T05:48:01.233Z,63.13
2022-07-30T05:50:05.193Z,62.86
2022-07-30T05:52:07.391Z,62.85
2022-07-30T05:54:09.559Z,62.51
2022-07-30T05:56:19.804Z,62.08
2022-07-30T05:58:31.184Z,62.19
2022-07-30T06:00:35.700Z,62.49
2022-07-30T06:02:39.475Z,62.26
2022-07-30T06:05:04.373Z,62.26
2022-07-30T06:07:06.116Z,62.00
2022-07-30T06:09:08.619Z,62.02
2022-07-30T06:11:10.590Z,62.31
2022-07-30T06:13:14.991Z,62.11
2022-07-30T06:15:20.539Z,61.49
2022-07-30T06:17:27.295Z,61.27
2022-07-30T06:19:40.144Z,61.28
2022-07-30T06:22:02.137Z,61.27
2022-07-30T06:24:05.553Z,61.27
2022-07-30T06:26:17.030Z,61.18
2022-07-30T06:30:49.259Z,60.74
2022-07-30T06:32:51.445Z,60.54
2022-07-30T06:35:02.627Z,60.44
2022-07-30T06:37:06.864Z,59.98
2022-07-30T06:39:08.925Z,59.89
2022-07-30T06:41:28.755Z,59.62
2022-07-30T06:43:33.596Z,59.38
2022-07-30T06:45:54.166Z,59.55
2022-07-30T06:48:03.464Z,58.98
2022-07-30T06:50:07.834Z,58.62
2022-07-30T06:52:12.665Z,59.25
2022-07-30T06:54:21.397Z,59.08
2022-07-30T06:56:36.240Z,59.21
2022-07-30T06:58:40.414Z,58.97
2022-07-30T07:01:01.542Z,59.19
2022-07-30T07:03:08.733Z,59.07
2022-07-30T07:05:13.970Z,58.33
2022-07-30T07:07:40.257Z,58.49
2022-07-30T07:09:42.089Z,57.64
2022-07-30T07:12:05.457Z,57.50
2022-07-30T07:14:09.041Z,56.91
2022-07-30T07:16:11.887Z,56.89
2022-07-30T07:18:17.057Z,57.00
2022-07-30T07:20:25.484Z,57.24
2022-07-30T07:22:34.612Z,57.16
2022-07-30T07:24:36.215Z,56.88
2022-07-30T07:26:42.190Z,56.76
2022-07-30T07:28:44.928Z,56.49
2022-07-30T07:30:46.851Z,56.55
2022-07-30T07:32:49.470Z,56.26
2022-07-30T07:34:51.154Z,56.25
2022-07-30T07:36:52.985Z,56.22
2022-07-30T07:38:55.787Z,55.90
2022-07-30T07:40:57.790Z,56.29
2022-07-30T07:42:59.607Z,56.01
2022-07-30T07:45:02.306Z,55.93
2022-07-30T07:47:09.911Z,56.00
2022-07-30T07:49:17.823Z,55.66
2022-07-30T07:51:46.862Z,55.82
2022-07-30T07:54:05.717Z,55.26
2022-07-30T07:56:10.267Z,55.29
2022-07-30T07:58:14.682Z,55.07
2022-07-30T08:00:21.780Z,54.62
2022-07-30T08:02:26.495Z,54.29
2022-07-30T08:04:39.305Z,54.48
2022-07-30T08:06:47.207Z,54.12
2022-07-30T08:09:07.733Z,54.27
2022-07-30T08:11:31.973Z,54.37
2022-07-30T08:13:53.647Z,54.20
2022-07-30T08:16:12.632Z,54.44
2022-07-30T08:18:29.592Z,54.83
2022-07-30T08:20:45.082Z,54.59
2022-07-30T08:22:49.588Z,54.43
2022-07-30T08:24:51.697Z,54.24
2022-07-30T08:26:53.342Z,54.34
2022-07-30T08:28:55.022Z,54.77
2022-07-30T08:31:00.519Z,54.58
2022-07-30T08:33:04.196Z,54.31
2022-07-30T08:35:06.490Z,54.30
2022-07-30T08:37:09.045Z,53.95
2022-07-30T08:39:11.170Z,53.75
2022-07-30T08:41:13.633Z,53.46
2022-07-30T08:43:15.449Z,53.62
2022-07-30T08:45:18.031Z,53.35
2022-07-30T08:47:23.636Z,53.21
2022-07-30T08:49:46.282Z,52.72
2022-07-30T08:51:52.451Z,52.84
2022-07-30T08:54:19.355Z,52.87
2022-07-30T08:56:21.061Z,52.40
2022-07-30T08:58:29.695Z,52.16
2022-07-30T09:00:31.467Z,51.73
2022-07-30T09:02:33.863Z,51.68
2022-07-30T09:04:39.338Z,52.36
2022-07-30T09:06:41.154Z,51.49
2022-07-30T09:08:45.287Z,52.33
2022-07-30T09:10:53.342Z,51.62
2022-07-30T09:12:56.089Z,51.63
2022-07-30T09:15:25.452Z,51.42
2022-07-30T09:17:31.245Z,50.62
2022-07-30T09:19:34.557Z,51.09
2022-07-30T09:21:36.242Z,50.99
2022-07-30T09:24:04.174Z,50.19
2022-07-30T09:26:24.905Z,50.61
2022-07-30T09:28:45.081Z,50.83
2022-07-30T09:30:54.429Z,49.90
2022-07-30T09:33:15.388Z,50.64
2022-07-30T09:35:41.349Z,50.76
2022-07-30T09:37:47.833Z,50.58
2022-07-30T09:40:14.674Z,50.67
2022-07-30T09:42:35.270Z,50.35
2022-07-30T09:44:42.797Z,49.64
2022-07-30T09:46:51.005Z,49.78
2022-07-30T09:49:18.745Z,48.34
2022-07-30T09:51:49.344Z,47.38
2022-07-30T09:54:00.226Z,48.21
2022-07-30T09:56:26.613Z,49.10
2022-07-30T09:58:45.471Z,49.66
2022-07-30T10:00:48.996Z,49.79
2022-07-30T10:03:41.651Z,49.79
2022-07-30T10:06:03.612Z,49.45
2022-07-30T10:08:16.577Z,49.33
2022-07-30T10:10:25.194Z,49.18
2022-07-30T10:12:28.431Z,49.39
2022-07-30T10:14:42.841Z,49.30
2022-07-30T10:16:47.567Z,48.98
2022-07-30T10:18:49.654Z,48.68
2022-07-30T10:21:12.880Z,48.42
2022-07-30T10:23:54.070Z,48.17
2022-07-30T10:26:22.338Z,47.85
2022-07-30T10:28:43.616Z,48.10
2022-07-30T10:30:49.094Z,48.16
2022-07-30T10:32:53.270Z,48.18
2022-07-30T10:34:55.432Z,47.76
2022-07-30T10:37:01.953Z,48.16
2022-07-30T10:39:09.976Z,47.50
2022-07-30T10:41:42.802Z,46.88
2022-07-30T10:44:04.944Z,46.84
2022-07-30T10:46:29.498Z,46.32
2022-07-30T10:48:34.221Z,46.08
2022-07-30T10:50:53.353Z,46.30
2022-07-30T10:52:57.494Z,46.17
2022-07-30T10:55:01.233Z,45.59
2022-07-30T10:57:14.674Z,45.33
2022-07-30T10:59:17.230Z,45.32
2022-07-30T11:01:18.909Z,45.19
2022-07-30T11:03:41.464Z,44.76
2022-07-30T11:05:49.055Z,44.49
2022-07-30T11:07:50.704Z,44.02
2022-07-30T11:10:05.514Z,43.37
2022-07-30T11:12:12.867Z,43.18
2022-07-30T11:14:17.797Z,43.51
2022-07-30T11:16:24.516Z,42.60
2022-07-30T11:18:28.793Z,41.89
2022-07-30T11:20:32.016Z,40.62
2022-07-30T11:22:40.282Z,41.25
2022-07-30T11:24:46.405Z,40.34
2022-07-30T11:26:50.447Z,40.52
2022-07-30T11:28:52.102Z,40.92
2022-07-30T11:30:55.797Z,41.33
2022-07-30T11:33:05.198Z,42.09
2022-07-30T11:35:17.116Z,41.60
2022-07-30T11:37:32.276Z,41.72
2022-07-30T11:39:55.979Z,41.33
2022-07-30T11:42:25.725Z,41.52
2022-07-30T11:44:30.474Z,41.16
2022-07-30T11:46:32.146Z,41.84
2022-07-30T11:48:35.599Z,41.67
2022-07-30T11:50:38.008Z,40.73
2022-07-30T11:52:42.613Z,41.47
2022-07-30T11:54:53.592Z,39.84
2022-07-30T11:57:04.134Z,40.93
2022-07-30T11:59:08.940Z,40.31
2022-07-30T12:01:16.640Z,39.41
2022-07-30T12:03:20.145Z,40.25
2022-07-30T12:05:27.253Z,39.72
2022-07-30T12:07:28.961Z,39.79
2022-07-30T12:09:32.177Z,38.62
2022-07-30T12:11:37.792Z,38.33
2022-07-30T12:13:45.977Z,38.35
2022-07-30T12:15:51.009Z,38.71
2022-07-30T12:18:11.031Z,38.68
2022-07-30T12:20:18.472Z,37.96
2022-07-30T12:22:20.225Z,38.30
2022-07-30T12:24:26.666Z,37.47
2022-07-30T12:26:31.350Z,38.03
2022-07-30T12:28:34.567Z,37.73
2022-07-30T12:30:40.888Z,37.86
2022-07-30T12:32:43.745Z,38.04
2022-07-30T12:34:55.844Z,37.38
2022-07-30T12:37:10.277Z,37.28
2022-07-30T12:39:20.791Z,37.65
2022-07-30T12:41:22.743Z,37.84
2022-07-30T12:43:50.746Z,36.66
2022-07-30T12:45:58.535Z,36.77
2022-07-30T12:48:00.104Z,37.58
2022-07-30T12:50:17.342Z,36.51
2022-07-30T12:52:29.367Z,36.30
2022-07-30T12:54:32.933Z,36.85
2022-07-30T12:56:34.893Z,37.43
2022-07-30T12:58:37.650Z,37.51
2022-07-30T13:00:52.696Z,37.38
2022-07-30T13:02:54.865Z,37.38
2022-07-30T13:05:10.797Z,38.12
2022-07-30T13:07:13.669Z,38.19
2022-07-30T13:09:22.738Z,38.51
2022-07-30T13:11:38.598Z,38.46
2022-07-30T13:13:40.277Z,38.31
2022-07-30T13:15:53.925Z,38.10
2022-07-30T13:17:55.969Z,38.03
2022-07-30T13:19:57.894Z,37.98
2022-07-30T13:21:59.653Z,37.48
2022-07-30T13:24:02.509Z,37.32
2022-07-30T13:26:06.037Z,37.34
2022-07-30T13:28:07.796Z,37.90
2022-07-30T13:30:10.565Z,37.75
2022-07-30T13:32:12.194Z,37.21
2022-07-30T13:34:13.897Z,37.47
2022-07-30T13:36:16.205Z,37.05
2022-07-30T13:38:17.931Z,37.61
2022-07-30T13:40:19.717Z,37.81
2022-07-30T13:42:21.405Z,37.43
2022-07-30T13:44:23.385Z,37.71
2022-07-30T13:46:24.875Z,37.33
2022-07-30T13:48:26.526Z,37.57
2022-07-30T13:50:28.192Z,37.88
2022-07-30T13:52:29.865Z,38.28
2022-07-30T13:54:31.428Z,38.44
2022-07-30T13:56:32.962Z,38.46
2022-07-30T13:58:43.045Z,38.50
2022-07-30T14:00:48.112Z,38.58
2022-07-30T14:02:49.912Z,38.62
2022-07-30T14:04:51.702Z,38.44
2022-07-30T14:06:53.569Z,38.58
2022-07-30T14:08:55.263Z,38.91
2022-07-30T14:10:58.653Z,38.73
2022-07-30T14:13:00.920Z,39.13
2022-07-30T14:15:02.641Z,39.18
2022-07-30T14:17:04.767Z,39.00
2022-07-30T14:19:06.782Z,38.85
2022-07-30T14:21:08.599Z,39.32
2022-07-30T14:23:10.291Z,39.46
2022-07-30T14:25:12.688Z,39.15
2022-07-30T14:27:14.479Z,38.95
2022-07-30T14:29:16.163Z,39.52
2022-07-30T14:31:17.809Z,39.38
2022-07-30T14:33:19.437Z,39.49
2022-07-30T14:35:20.884Z,39.54
2022-07-30T14:37:23.774Z,39.75
2022-07-30T14:39:26.062Z,39.29
2022-07-30T14:41:28.378Z,38.53
2022-07-30T14:43:29.932Z,38.37
2022-07-30T14:45:31.556Z,38.67
2022-07-30T14:47:33.142Z,38.15
2022-07-30T14:49:35.108Z,38.36
2022-07-30T14:51:37.440Z,38.04
2022-07-30T14:53:39.185Z,38.20
2022-07-30T14:55:41.969Z,38.70
2022-07-30T14:57:44.245Z,38.92
2022-07-30T14:59:45.970Z,38.69
2022-07-30T15:01:47.982Z,38.56
2022-07-30T15:03:50.579Z,39.15
2022-07-30T15:05:52.755Z,38.89
2022-07-30T15:07:54.300Z,38.98
2022-07-30T15:09:56.193Z,39.19
2022-07-30T15:12:08.543Z,38.81
2022-07-30T15:14:12.264Z,39.24
2022-07-30T15:16:14.588Z,39.22
2022-07-30T15:18:16.119Z,39.26
2022-07-30T15:20:19.102Z,39.52
2022-07-30T15:22:20.865Z,39.81
2022-07-30T15:24:22.472Z,39.51
2022-07-30T15:26:28.472Z,39.96
2022-07-30T15:28:30.455Z,39.83
2022-07-30T15:30:32.330Z,39.85
2022-07-30T15:32:34.227Z,39.92
2022-07-30T15:34:36.127Z,40.15
2022-07-30T15:36:38.959Z,40.28
2022-07-30T15:38:40.653Z,40.02
2022-07-30T15:40:43.194Z,40.35
2022-07-30T15:42:45.191Z,40.01
2022-07-30T15:44:49.074Z,39.80
2022-07-30T15:46:51.221Z,39.86
2022-07-30T15:48:52.951Z,40.45
2022-07-30T15:51:05.087Z,40.21
2022-07-30T15:53:11.754Z,40.57
2022-07-30T15:55:15.567Z,40.45
2022-07-30T15:57:17.199Z,40.29
2022-07-30T15:59:18.768Z,40.17
2022-07-30T16:01:20.408Z,40.44
2022-07-30T16:03:22.145Z,40.59
2022-07-30T16:05:24.072Z,40.32
2022-07-30T16:07:25.778Z,40.50
2022-07-30T16:09:28.192Z,40.86
2022-07-30T16:11:31.342Z,40.41
2022-07-30T16:13:34.051Z,40.96
2022-07-30T16:15:35.697Z,40.82
2022-07-30T16:17:37.349Z,41.02
2022-07-30T16:19:39.043Z,40.67
2022-07-30T16:21:41.086Z,40.38
2022-07-30T16:23:44.752Z,40.68
2022-07-30T16:25:46.482Z,40.87
2022-07-30T16:27:48.064Z,40.21
2022-07-30T16:29:50.682Z,40.21
2022-07-30T16:31:52.535Z,40.21
2022-07-30T16:33:54.309Z,40.56
2022-07-30T16:35:56.004Z,40.84
2022-07-30T16:38:02.627Z,40.94
2022-07-30T16:40:04.808Z,40.44
2022-07-30T16:42:06.890Z,40.84
2022-07-30T16:44:08.541Z,40.70
2022-07-30T16:46:11.047Z,40.90
2022-07-30T16:48:13.719Z,40.89
2022-07-30T16:50:16.154Z,41.27
2022-07-30T16:52:18.295Z,41.11
2022-07-30T16:54:20.642Z,41.03
2022-07-30T16:56:22.576Z,41.42
2022-07-30T16:58:30.586Z,41.19
2022-07-30T17:00:32.916Z,41.31
2022-07-30T17:02:34.547Z,41.23
2022-07-30T17:04:36.274Z,41.32
2022-07-30T17:06:39.548Z,41.79
2022-07-30T17:08:41.173Z,42.06
2022-07-30T17:10:42.989Z,42.13
2022-07-30T17:12:50.818Z,42.01
2022-07-30T17:14:52.875Z,41.98
2022-07-30T17:16:54.697Z,42.15
2022-07-30T17:18:56.208Z,42.25
2022-07-30T17:20:57.859Z,42.21
2022-07-30T17:22:59.842Z,42.24
2022-07-30T17:25:01.546Z,42.13
2022-07-30T17:27:03.202Z,42.10
2022-07-30T17:29:05.332Z,42.22
2022-07-30T17:31:07.526Z,41.77
2022-07-30T17:33:09.102Z,42.15
2022-07-30T17:35:13.828Z,41.78
2022-07-30T17:37:16.440Z,42.04
2022-07-30T17:40:19.065Z,42.30
2022-07-30T17:41:55.572Z,42.24
2022-07-30T17:44:02.219Z,42.36
2022-07-30T17:46:03.980Z,42.14
2022-07-30T17:48:06.649Z,42.45
2022-07-30T17:50:09.002Z,42.67
2022-07-30T17:52:10.833Z,42.33
2022-07-30T17:54:12.631Z,42.52
2022-07-30T17:56:25.540Z,43.01
2022-07-30T17:58:29.074Z,42.88
2022-07-30T18:00:30.922Z,42.60
2022-07-30T18:02:32.541Z,42.76
2022-07-30T18:04:35.829Z,42.55
2022-07-30T18:06:37.597Z,42.88
2022-07-30T18:08:39.033Z,42.97
2022-07-30T18:10:40.743Z,42.80
2022-07-30T18:12:48.848Z,43.07
2022-07-30T18:14:51.902Z,42.57
2022-07-30T18:16:54.439Z,43.24
2022-07-30T18:18:56.058Z,43.19
2022-07-30T18:20:57.740Z,43.07
2022-07-30T18:23:00.226Z,43.31
2022-07-30T18:25:01.872Z,42.90
2022-07-30T18:27:03.995Z,43.23
2022-07-30T18:29:08.061Z,43.34
2022-07-30T18:31:12.852Z,43.45
2022-07-30T18:33:16.017Z,43.13
2022-07-30T18:35:17.703Z,43.55
2022-07-30T18:37:19.191Z,43.46
2022-07-30T18:39:20.820Z,43.40
2022-07-30T18:41:23.646Z,43.48
2022-07-30T18:43:27.824Z,43.58
2022-07-30T18:45:32.899Z,43.57
2022-07-30T18:47:36.937Z,43.69
2022-07-30T18:49:38.718Z,44.10
2022-07-30T18:51:40.766Z,44.06
2022-07-30T18:53:42.642Z,43.65
2022-07-30T18:55:45.192Z,43.99
2022-07-30T18:57:46.995Z,44.24
2022-07-30T18:59:54.006Z,43.92
2022-07-30T19:01:55.599Z,44.12
2022-07-30T19:03:57.096Z,44.27
2022-07-30T19:05:58.618Z,43.84
2022-07-30T19:08:00.290Z,44.09
2022-07-30T19:10:02.121Z,44.42
2022-07-30T19:12:04.693Z,44.16
2022-07-30T19:14:06.725Z,44.71
2022-07-30T19:16:08.727Z,44.58
2022-07-30T19:18:10.611Z,44.65
2022-07-30T19:20:12.616Z,44.51
2022-07-30T19:22:14.699Z,44.63
2022-07-30T19:24:16.185Z,44.93
2022-07-30T19:26:18.911Z,45.10
2022-07-30T19:28:20.650Z,45.16
2022-07-30T19:30:22.675Z,45.06
2022-07-30T19:32:24.833Z,45.54
2022-07-30T19:34:26.452Z,45.52
2022-07-30T19:36:29.426Z,45.90
2022-07-30T19:38:30.976Z,45.96
2022-07-30T19:40:32.871Z,45.71
2022-07-30T19:42:34.711Z,46.22
2022-07-30T19:44:40.449Z,46.25
2022-07-30T19:46:43.387Z,46.39
2022-07-30T19:48:45.126Z,46.43
2022-07-30T19:50:47.663Z,46.59
2022-07-30T19:52:51.169Z,46.90
2022-07-30T19:54:53.304Z,47.09
2022-07-30T19:56:54.879Z,47.03
2022-07-30T19:58:56.508Z,47.37
2022-07-30T20:00:58.576Z,47.38
2022-07-30T20:03:00.208Z,47.28
2022-07-30T20:05:03.784Z,47.91
2022-07-30T20:07:07.984Z,48.02
2022-07-30T20:09:14.503Z,47.87
2022-07-30T20:11:34.645Z,48.02
2022-07-30T20:13:45.467Z,48.10
2022-07-30T20:15:49.753Z,48.37
2022-07-30T20:17:55.106Z,48.41
2022-07-30T20:19:59.382Z,48.38
2022-07-30T20:22:01.218Z,48.77
2022-07-30T20:24:02.921Z,48.45
2022-07-30T20:26:12.535Z,48.82
2022-07-30T20:28:14.676Z,48.98
2022-07-30T20:30:25.294Z,48.95
2022-07-30T20:32:27.140Z,49.19
2022-07-30T20:34:30.803Z,49.41
2022-07-30T20:36:35.036Z,49.49
2022-07-30T20:38:38.779Z,49.65
2022-07-30T20:40:41.582Z,49.77
2022-07-30T20:42:46.386Z,49.73
2022-07-30T20:44:49.532Z,49.93
2022-07-30T20:46:52.923Z,49.81
2022-07-30T20:48:54.665Z,50.06
2022-07-30T20:50:56.344Z,50.16
2022-07-30T20:52:59.340Z,50.28
2022-07-30T20:55:00.804Z,50.33
2022-07-30T20:57:04.432Z,50.56
2022-07-30T20:59:08.175Z,50.71
2022-07-30T21:01:15.515Z,50.78
2022-07-30T21:03:21.326Z,50.74
2022-07-30T21:05:23.460Z,51.14
2022-07-30T21:07:36.366Z,50.96
2022-07-30T21:09:51.915Z,51.05
2022-07-30T21:11:54.597Z,51.06
2022-07-30T21:13:56.191Z,51.14
2022-07-30T21:16:02.428Z,51.18
2022-07-30T21:18:05.151Z,51.40
2022-07-30T21:20:07.798Z,51.28
2022-07-30T21:22:09.868Z,51.57
2022-07-30T21:24:15.302Z,51.56
2022-07-30T21:26:19.097Z,51.47
2022-07-30T21:28:27.631Z,51.86
2022-07-30T21:30:30.378Z,51.85
2022-07-30T21:32:31.971Z,52.22
2022-07-30T21:34:35.889Z,52.35
2022-07-30T21:36:43.576Z,52.54
2022-07-30T21:38:45.145Z,52.54
2022-07-30T21:40:46.851Z,52.55
2022-07-30T21:42:49.228Z,52.47
2022-07-30T21:44:51.714Z,52.62
2022-07-30T21:46:55.682Z,52.68
2022-07-30T21:48:59.387Z,52.76
2022-07-30T21:51:01.166Z,52.70
2022-07-30T21:53:03.092Z,53.00
2022-07-30T21:55:05.235Z,53.02
2022-07-30T21:57:06.922Z,52.94
2022-07-30T21:59:08.565Z,53.06
2022-07-30T22:01:18.051Z,53.11
2022-07-30T22:04:03.307Z,52.95
2022-07-30T22:05:43.500Z,53.12
2022-07-30T22:07:45.381Z,53.39
2022-07-30T22:09:50.260Z,53.43
2022-07-30T22:11:52.266Z,53.39
2022-07-30T22:13:53.792Z,53.61
2022-07-30T22:15:55.934Z,53.52
2022-07-30T22:20:21.963Z,53.78
2022-07-30T22:22:27.349Z,54.02
2022-07-30T22:24:31.349Z,53.74
2022-07-30T22:26:33.231Z,53.97
2022-07-30T22:28:34.846Z,53.97
2022-07-30T22:30:39.061Z,54.15
2022-07-30T22:32:41.326Z,54.02
2022-07-30T22:34:44.842Z,54.32
2022-07-30T22:36:46.575Z,54.04
2022-07-30T22:38:59.190Z,54.43
2022-07-30T22:41:01.555Z,54.45
2022-07-30T22:43:07.596Z,54.52
2022-07-30T22:45:09.687Z,54.71
2022-07-30T22:47:18.648Z,54.76
2022-07-30T22:49:23.432Z,54.77
2022-07-30T22:51:58.739Z,54.70
2022-07-30T22:54:11.044Z,54.76
2022-07-30T22:56:15.518Z,55.17
2022-07-30T22:58:17.297Z,55.26
2022-07-30T23:00:27.982Z,55.32
2022-07-30T23:02:30.169Z,54.91
2022-07-30T23:04:31.849Z,54.97
2022-07-30T23:06:34.927Z,54.93
2022-07-30T23:08:36.547Z,55.35
2022-07-30T23:10:38.169Z,55.13
2022-07-30T23:12:28.557Z,53.46
2022-07-30T23:12:42.054Z,55.33
2022-07-30T23:14:43.932Z,55.63
2022-07-30T23:16:50.130Z,55.36
2022-07-30T23:18:52.797Z,55.58
2022-07-30T23:20:59.926Z,55.64
2022-07-30T23:23:03.001Z,55.45
2022-07-30T23:25:06.727Z,55.62
2022-07-30T23:27:14.182Z,55.82
2022-07-30T23:29:15.917Z,55.96
2022-07-30T23:31:17.551Z,55.61
2022-07-30T23:33:19.348Z,55.84
2022-07-30T23:35:21.766Z,55.85
2022-07-30T23:37:23.418Z,56.06
2022-07-30T23:39:24.980Z,56.19
2022-07-30T23:41:29.860Z,56.20
2022-07-30T23:43:33.335Z,56.23
2022-07-30T23:45:34.914Z,56.25
2022-07-30T23:47:52.960Z,56.37
2022-07-30T23:49:59.889Z,56.28
2022-07-30T23:52:01.556Z,56.28
2022-07-30T23:54:03.509Z,56.52
2022-07-30T23:56:05.011Z,56.72
2022-07-30T23:58:06.661Z,56.54
